createdAt,value
2018-11-27T00:00:00.975Z,95055.00
2018-11-27T00:00:38.683Z,95054.00
2018-11-27T00:01:16.269Z,95053.00
2018-11-27T00:01:53.824Z,95057.00
2018-11-27T00:02:31.328Z,95058.00
2018-11-27T00:03:08.975Z,95057.00
2018-11-27T00:03:46.456Z,95056.00
2018-11-27T00:04:24.365Z,95056.00
2018-11-27T00:05:02.001Z,95057.00
2018-11-27T00:05:39.644Z,95060.00
2018-11-27T00:06:17.382Z,95060.00
2018-11-27T00:06:55.227Z,95059.00
2018-11-27T00:07:32.653Z,95058.00
2018-11-27T00:08:10.284Z,95064.00
2018-11-27T00:08:47.948Z,95064.00
2018-11-27T00:09:25.564Z,95059.00
2018-11-27T00:10:03.090Z,95063.00
2018-11-27T00:10:40.795Z,95058.00
2018-11-27T00:11:18.316Z,95060.00
2018-11-27T00:11:55.880Z,95062.00
2018-11-27T00:12:33.468Z,95064.00
2018-11-27T00:13:11.037Z,95065.00
2018-11-27T00:13:48.641Z,95063.00
2018-11-27T00:14:26.198Z,95063.00
2018-11-27T00:15:03.736Z,95061.00
2018-11-27T00:15:41.424Z,95062.00
2018-11-27T00:16:18.919Z,95067.00
2018-11-27T00:16:56.435Z,95063.00
2018-11-27T00:17:34.037Z,95065.00
2018-11-27T00:18:11.668Z,95063.00
2018-11-27T00:18:49.140Z,95064.00
2018-11-27T00:19:26.874Z,95065.00
2018-11-27T00:20:04.480Z,95062.00
2018-11-27T00:20:42.065Z,95065.00
2018-11-27T00:21:19.556Z,95063.00
2018-11-27T00:21:57.028Z,95071.00
2018-11-27T00:22:34.561Z,95068.00
2018-11-27T00:23:12.143Z,95068.00
2018-11-27T00:23:49.722Z,95069.00
2018-11-27T00:24:27.284Z,95068.00
2018-11-27T00:25:04.824Z,95067.00
2018-11-27T00:25:42.500Z,95067.00
2018-11-27T00:26:19.953Z,95069.00
2018-11-27T00:26:57.658Z,95069.00
2018-11-27T00:27:35.192Z,95069.00
2018-11-27T00:28:12.858Z,95067.00
2018-11-27T00:28:50.731Z,95070.00
2018-11-27T00:29:28.277Z,95068.00
2018-11-27T00:30:05.687Z,95069.00
2018-11-27T00:30:43.301Z,95067.00
2018-11-27T00:31:20.876Z,95073.00
2018-11-27T00:31:58.516Z,95070.00
2018-11-27T00:32:36.073Z,95070.00
2018-11-27T00:33:13.631Z,95070.00
2018-11-27T00:33:51.480Z,95068.00
2018-11-27T00:34:29.144Z,95068.00
2018-11-27T00:35:06.796Z,95074.00
2018-11-27T00:35:44.519Z,95072.00
2018-11-27T00:36:22.182Z,95071.00
2018-11-27T00:36:59.855Z,95070.00
2018-11-27T00:37:37.670Z,95074.00
2018-11-27T00:38:15.288Z,95074.00
2018-11-27T00:38:52.878Z,95075.00
2018-11-27T00:39:30.493Z,95076.00
2018-11-27T00:40:08.131Z,95077.00
2018-11-27T00:40:45.756Z,95079.00
2018-11-27T00:41:23.263Z,95077.00
2018-11-27T00:42:00.878Z,95078.00
2018-11-27T00:42:38.497Z,95077.00
2018-11-27T00:43:16.058Z,95080.00
2018-11-27T00:43:53.577Z,95085.00
2018-11-27T00:44:31.109Z,95079.00
2018-11-27T00:45:08.680Z,95079.00
2018-11-27T00:45:46.287Z,95080.00
2018-11-27T00:46:23.928Z,95081.00
2018-11-27T00:47:01.382Z,95081.00
2018-11-27T00:47:38.912Z,95081.00
2018-11-27T00:48:16.732Z,95079.00
2018-11-27T00:48:54.307Z,95084.00
2018-11-27T00:49:31.882Z,95078.00
2018-11-27T00:50:09.465Z,95086.00
2018-11-27T00:50:47.124Z,95082.00
2018-11-27T00:51:24.460Z,95088.00
2018-11-27T00:52:01.852Z,95081.00
2018-11-27T00:52:39.416Z,95086.00
2018-11-27T00:53:17.001Z,95083.00
2018-11-27T00:53:54.555Z,95083.00
2018-11-27T00:54:32.164Z,95084.00
2018-11-27T00:55:09.844Z,95084.00
2018-11-27T00:55:47.496Z,95086.00
2018-11-27T00:56:24.917Z,95096.00
2018-11-27T00:57:02.524Z,95089.00
2018-11-27T00:57:40.138Z,95092.00
2018-11-27T00:58:17.719Z,95088.00
2018-11-27T00:58:55.214Z,95089.00
2018-11-27T00:59:32.913Z,95092.00
2018-11-27T01:00:10.589Z,95094.00
2018-11-27T01:00:48.284Z,95095.00
2018-11-27T01:01:25.792Z,95094.00
2018-11-27T01:02:03.368Z,95099.00
2018-11-27T01:02:40.895Z,95095.00
2018-11-27T01:03:18.417Z,95097.00
2018-11-27T01:03:55.983Z,95100.00
2018-11-27T01:04:33.484Z,95099.00
2018-11-27T01:05:10.949Z,95098.00
2018-11-27T01:05:48.701Z,95105.00
2018-11-27T01:06:26.205Z,95106.00
2018-11-27T01:07:03.890Z,95102.00
2018-11-27T01:07:41.372Z,95106.00
2018-11-27T01:08:18.949Z,95107.00
2018-11-27T01:08:56.607Z,95104.00
2018-11-27T01:09:34.071Z,95106.00
2018-11-27T01:10:11.670Z,95104.00
2018-11-27T01:10:49.160Z,95105.00
2018-11-27T01:11:26.831Z,95108.00
2018-11-27T01:12:04.499Z,95111.00
2018-11-27T01:12:42.324Z,95107.00
2018-11-27T01:13:19.990Z,95112.00
2018-11-27T01:13:57.566Z,95112.00
2018-11-27T01:14:35.121Z,95114.00
2018-11-27T01:15:12.688Z,95109.00
2018-11-27T01:15:50.241Z,95114.00
2018-11-27T01:16:28.021Z,95114.00
2018-11-27T01:17:05.548Z,95117.00
2018-11-27T01:17:43.316Z,95114.00
2018-11-27T01:18:21.060Z,95119.00
2018-11-27T01:18:58.623Z,95120.00
2018-11-27T01:19:36.217Z,95117.00
2018-11-27T01:20:13.732Z,95113.00
2018-11-27T01:20:51.386Z,95114.00
2018-11-27T01:21:28.974Z,95117.00
2018-11-27T01:22:06.447Z,95120.00
2018-11-27T01:22:44.042Z,95118.00
2018-11-27T01:23:21.642Z,95111.00
2018-11-27T01:23:59.368Z,95121.00
2018-11-27T01:24:37.319Z,95117.00
2018-11-27T01:25:14.870Z,95116.00
2018-11-27T01:25:52.459Z,95119.00
2018-11-27T01:26:30.086Z,95118.00
2018-11-27T01:27:07.660Z,95117.00
2018-11-27T01:27:45.510Z,95118.00
2018-11-27T01:28:23.207Z,95118.00
2018-11-27T01:29:00.795Z,95116.00
2018-11-27T01:29:38.436Z,95118.00
2018-11-27T01:30:16.135Z,95114.00
2018-11-27T01:30:53.768Z,95117.00
2018-11-27T01:31:31.293Z,95122.00
2018-11-27T01:32:09.129Z,95123.00
2018-11-27T01:32:46.604Z,95117.00
2018-11-27T01:33:24.212Z,95123.00
2018-11-27T01:34:01.915Z,95123.00
2018-11-27T01:34:39.647Z,95123.00
2018-11-27T01:35:17.348Z,95119.00
2018-11-27T01:35:55.036Z,95124.00
2018-11-27T01:36:32.756Z,95123.00
2018-11-27T01:37:10.398Z,95126.00
2018-11-27T01:37:48.116Z,95123.00
2018-11-27T01:38:25.621Z,95124.00
2018-11-27T01:39:03.295Z,95123.00
2018-11-27T01:39:40.988Z,95122.00
2018-11-27T01:40:18.640Z,95122.00
2018-11-27T01:40:56.554Z,95122.00
2018-11-27T01:41:34.241Z,95120.00
2018-11-27T01:42:11.764Z,95123.00
2018-11-27T01:42:49.647Z,95128.00
2018-11-27T01:43:27.788Z,95123.00
2018-11-27T01:44:04.730Z,95125.00
2018-11-27T01:44:42.448Z,95127.00
2018-11-27T01:45:19.935Z,95125.00
2018-11-27T01:45:57.666Z,95126.00
2018-11-27T01:46:35.242Z,95129.00
2018-11-27T01:47:12.940Z,95127.00
2018-11-27T01:47:50.486Z,95125.00
2018-11-27T01:48:28.157Z,95129.00
2018-11-27T01:49:05.639Z,95131.00
2018-11-27T01:49:43.101Z,95126.00
2018-11-27T01:50:20.912Z,95135.00
2018-11-27T01:50:58.773Z,95128.00
2018-11-27T01:51:36.379Z,95134.00
2018-11-27T01:52:13.863Z,95129.00
2018-11-27T01:52:51.443Z,95133.00
2018-11-27T01:53:29.172Z,95135.00
2018-11-27T01:54:06.743Z,95130.00
2018-11-27T01:54:44.481Z,95127.00
2018-11-27T01:55:22.063Z,95133.00
2018-11-27T01:55:59.741Z,95132.00
2018-11-27T01:56:37.218Z,95136.00
2018-11-27T01:57:15.071Z,95142.00
2018-11-27T01:57:52.831Z,95140.00
2018-11-27T01:58:30.361Z,95138.00
2018-11-27T01:59:07.981Z,95140.00
2018-11-27T01:59:45.721Z,95141.00
2018-11-27T02:00:23.108Z,95141.00
2018-11-27T02:01:00.790Z,95144.00
2018-11-27T02:01:38.604Z,95141.00
2018-11-27T02:02:16.252Z,95139.00
2018-11-27T02:02:54.016Z,95142.00
2018-11-27T02:03:31.530Z,95143.00
2018-11-27T02:04:09.050Z,95139.00
2018-11-27T02:04:46.754Z,95140.00
2018-11-27T02:05:24.476Z,95141.00
2018-11-27T02:06:02.399Z,95141.00
2018-11-27T02:06:40.081Z,95143.00
2018-11-27T02:07:17.695Z,95135.00
2018-11-27T02:07:55.187Z,95142.00
2018-11-27T02:08:32.668Z,95139.00
2018-11-27T02:09:10.222Z,95140.00
2018-11-27T02:09:48.057Z,95143.00
2018-11-27T02:10:25.587Z,95141.00
2018-11-27T02:11:03.034Z,95140.00
2018-11-27T02:11:40.666Z,95142.00
2018-11-27T02:12:18.171Z,95140.00
2018-11-27T02:13:01.028Z,95143.00
2018-11-27T02:13:33.629Z,95142.00
2018-11-27T02:14:11.389Z,95140.00
2018-11-27T02:14:49.040Z,95138.00
2018-11-27T02:15:26.614Z,95145.00
2018-11-27T02:16:04.286Z,95142.00
2018-11-27T02:16:41.911Z,95139.00
2018-11-27T02:17:19.377Z,95143.00
2018-11-27T02:17:57.076Z,95142.00
2018-11-27T02:18:34.756Z,95142.00
2018-11-27T02:19:12.514Z,95142.00
2018-11-27T02:19:50.249Z,95139.00
2018-11-27T02:20:27.900Z,95140.00
2018-11-27T02:21:05.464Z,95146.00
2018-11-27T02:21:43.112Z,95137.00
2018-11-27T02:22:20.653Z,95146.00
2018-11-27T02:22:58.246Z,95145.00
2018-11-27T02:23:35.883Z,95143.00
2018-11-27T02:24:13.516Z,95142.00
2018-11-27T02:24:51.086Z,95141.00
2018-11-27T02:25:28.803Z,95139.00
2018-11-27T02:26:06.501Z,95144.00
2018-11-27T02:26:44.158Z,95142.00
2018-11-27T02:27:21.707Z,95144.00
2018-11-27T02:27:59.321Z,95141.00
2018-11-27T02:28:36.834Z,95143.00
2018-11-27T02:29:14.356Z,95143.00
2018-11-27T02:29:51.951Z,95143.00
2018-11-27T02:30:29.783Z,95142.00
2018-11-27T02:31:07.657Z,95146.00
2018-11-27T02:31:45.246Z,95141.00
2018-11-27T02:32:22.738Z,95144.00
2018-11-27T02:33:00.317Z,95148.00
2018-11-27T02:33:38.081Z,95145.00
2018-11-27T02:34:15.748Z,95149.00
2018-11-27T02:34:53.433Z,95153.00
2018-11-27T02:35:31.046Z,95151.00
2018-11-27T02:36:08.622Z,95153.00
2018-11-27T02:36:46.215Z,95150.00
2018-11-27T02:37:23.929Z,95151.00
2018-11-27T02:38:01.442Z,95148.00
2018-11-27T02:38:39.168Z,95149.00
2018-11-27T02:39:16.704Z,95155.00
2018-11-27T02:39:54.454Z,95154.00
2018-11-27T02:40:31.895Z,95155.00
2018-11-27T02:41:09.481Z,95155.00
2018-11-27T02:41:47.163Z,95155.00
2018-11-27T02:42:24.932Z,95155.00
2018-11-27T02:43:02.515Z,95157.00
2018-11-27T02:43:40.125Z,95157.00
2018-11-27T02:44:17.529Z,95155.00
2018-11-27T02:44:55.095Z,95157.00
2018-11-27T02:45:32.677Z,95153.00
2018-11-27T02:46:10.340Z,95156.00
2018-11-27T02:46:48.024Z,95155.00
2018-11-27T02:47:25.603Z,95153.00
2018-11-27T02:48:03.188Z,95156.00
2018-11-27T02:48:40.777Z,95154.00
2018-11-27T02:49:18.237Z,95154.00
2018-11-27T02:49:56.231Z,95156.00
2018-11-27T02:50:33.781Z,95155.00
2018-11-27T02:51:11.239Z,95154.00
2018-11-27T02:51:48.947Z,95154.00
2018-11-27T02:52:26.634Z,95152.00
2018-11-27T02:53:04.173Z,95153.00
2018-11-27T02:53:41.813Z,95151.00
2018-11-27T02:54:19.245Z,95153.00
2018-11-27T02:54:56.794Z,95151.00
2018-11-27T02:55:34.249Z,95156.00
2018-11-27T02:56:11.871Z,95152.00
2018-11-27T02:56:49.547Z,95155.00
2018-11-27T02:57:27.376Z,95157.00
2018-11-27T02:58:05.016Z,95154.00
2018-11-27T02:58:42.471Z,95158.00
2018-11-27T02:59:20.254Z,95158.00
2018-11-27T02:59:57.934Z,95158.00
2018-11-27T03:00:35.426Z,95160.00
2018-11-27T03:01:13.100Z,95160.00
2018-11-27T03:01:50.694Z,95157.00
2018-11-27T03:02:28.276Z,95160.00
2018-11-27T03:03:05.876Z,95159.00
2018-11-27T03:03:43.734Z,95160.00
2018-11-27T03:04:21.381Z,95162.00
2018-11-27T03:04:59.066Z,95161.00
2018-11-27T03:05:36.684Z,95157.00
2018-11-27T03:06:14.265Z,95165.00
2018-11-27T03:06:51.849Z,95166.00
2018-11-27T03:07:29.461Z,95165.00
2018-11-27T03:08:07.182Z,95166.00
2018-11-27T03:08:44.805Z,95167.00
2018-11-27T03:09:23.160Z,95166.00
2018-11-27T03:10:00.884Z,95169.00
2018-11-27T03:10:38.687Z,95167.00
2018-11-27T03:11:16.332Z,95171.00
2018-11-27T03:11:54.090Z,95169.00
2018-11-27T03:12:31.854Z,95170.00
2018-11-27T03:13:09.536Z,95173.00
2018-11-27T03:13:47.049Z,95179.00
2018-11-27T03:14:24.751Z,95174.00
2018-11-27T03:15:02.435Z,95177.00
2018-11-27T03:15:40.011Z,95173.00
2018-11-27T03:16:17.440Z,95173.00
2018-11-27T03:16:55.054Z,95174.00
2018-11-27T03:17:32.743Z,95175.00
2018-11-27T03:18:10.293Z,95178.00
2018-11-27T03:18:47.775Z,95176.00
2018-11-27T03:19:25.371Z,95176.00
2018-11-27T03:20:03.032Z,95170.00
2018-11-27T03:20:40.591Z,95175.00
2018-11-27T03:21:18.055Z,95176.00
2018-11-27T03:21:55.703Z,95178.00
2018-11-27T03:22:33.350Z,95180.00
2018-11-27T03:23:11.020Z,95178.00
2018-11-27T03:23:48.622Z,95180.00
2018-11-27T03:24:26.077Z,95179.00
2018-11-27T03:25:03.735Z,95179.00
2018-11-27T03:25:41.341Z,95179.00
2018-11-27T03:26:18.788Z,95185.00
2018-11-27T03:26:56.378Z,95186.00
2018-11-27T03:27:34.062Z,95182.00
2018-11-27T03:28:11.966Z,95184.00
2018-11-27T03:28:49.704Z,95186.00
2018-11-27T03:29:27.394Z,95183.00
2018-11-27T03:30:05.185Z,95183.00
2018-11-27T03:30:42.896Z,95185.00
2018-11-27T03:31:20.817Z,95183.00
2018-11-27T03:31:58.468Z,95188.00
2018-11-27T03:32:36.041Z,95186.00
2018-11-27T03:33:13.725Z,95186.00
2018-11-27T03:33:51.175Z,95185.00
2018-11-27T03:34:28.769Z,95190.00
2018-11-27T03:35:06.377Z,95186.00
2018-11-27T03:35:44.028Z,95194.00
2018-11-27T03:36:21.569Z,95192.00
2018-11-27T03:36:59.281Z,95190.00
2018-11-27T03:37:37.381Z,95194.00
2018-11-27T03:38:15.195Z,95193.00
2018-11-27T03:38:52.751Z,95197.00
2018-11-27T03:39:30.528Z,95197.00
2018-11-27T03:40:08.358Z,95197.00
2018-11-27T03:40:46.035Z,95197.00
2018-11-27T03:41:23.482Z,95202.00
2018-11-27T03:42:01.216Z,95199.00
2018-11-27T03:42:38.922Z,95203.00
2018-11-27T03:43:16.595Z,95202.00
2018-11-27T03:43:54.253Z,95200.00
2018-11-27T03:44:31.839Z,95197.00
2018-11-27T03:45:09.369Z,95199.00
2018-11-27T03:45:46.993Z,95199.00
2018-11-27T03:46:24.696Z,95202.00
2018-11-27T03:47:02.237Z,95200.00
2018-11-27T03:47:39.727Z,95197.00
2018-11-27T03:48:17.537Z,95202.00
2018-11-27T03:48:55.408Z,95205.00
2018-11-27T03:49:33.334Z,95201.00
2018-11-27T03:50:10.667Z,95202.00
2018-11-27T03:50:48.274Z,95204.00
2018-11-27T03:51:25.833Z,95208.00
2018-11-27T03:52:03.599Z,95205.00
2018-11-27T03:52:41.444Z,95206.00
2018-11-27T03:53:18.827Z,95204.00
2018-11-27T03:53:56.391Z,95203.00
2018-11-27T03:54:33.943Z,95209.00
2018-11-27T03:55:11.551Z,95207.00
2018-11-27T03:55:49.136Z,95210.00
2018-11-27T03:56:26.761Z,95210.00
2018-11-27T03:57:04.398Z,95205.00
2018-11-27T03:57:42.110Z,95209.00
2018-11-27T03:58:19.703Z,95210.00
2018-11-27T03:58:57.179Z,95210.00
2018-11-27T03:59:34.882Z,95208.00
2018-11-27T04:00:12.455Z,95205.00
2018-11-27T04:00:50.069Z,95212.00
2018-11-27T04:01:27.663Z,95211.00
2018-11-27T04:02:05.412Z,95211.00
2018-11-27T04:02:42.951Z,95211.00
2018-11-27T04:03:20.904Z,95216.00
2018-11-27T04:03:58.368Z,95214.00
2018-11-27T04:04:36.105Z,95217.00
2018-11-27T04:05:13.603Z,95212.00
2018-11-27T04:05:51.199Z,95217.00
2018-11-27T04:06:28.960Z,95212.00
2018-11-27T04:07:06.552Z,95214.00
2018-11-27T04:07:44.153Z,95214.00
2018-11-27T04:08:21.677Z,95217.00
2018-11-27T04:08:59.323Z,95218.00
2018-11-27T04:09:36.863Z,95218.00
2018-11-27T04:10:14.392Z,95219.00
2018-11-27T04:10:51.939Z,95214.00
2018-11-27T04:11:29.704Z,95220.00
2018-11-27T04:12:07.239Z,95222.00
2018-11-27T04:12:44.776Z,95217.00
2018-11-27T04:13:22.508Z,95219.00
2018-11-27T04:14:00.194Z,95220.00
2018-11-27T04:14:37.844Z,95221.00
2018-11-27T04:15:15.459Z,95219.00
2018-11-27T04:15:52.976Z,95216.00
2018-11-27T04:16:30.554Z,95220.00
2018-11-27T04:17:08.092Z,95219.00
2018-11-27T04:17:45.683Z,95219.00
2018-11-27T04:18:23.336Z,95219.00
2018-11-27T04:19:00.892Z,95223.00
2018-11-27T04:19:38.476Z,95223.00
2018-11-27T04:20:16.109Z,95219.00
2018-11-27T04:20:53.848Z,95222.00
2018-11-27T04:21:31.680Z,95223.00
2018-11-27T04:22:09.242Z,95222.00
2018-11-27T04:22:46.810Z,95224.00
2018-11-27T04:23:24.648Z,95229.00
2018-11-27T04:24:02.430Z,95222.00
2018-11-27T04:24:40.100Z,95225.00
2018-11-27T04:25:17.613Z,95225.00
2018-11-27T04:25:55.281Z,95231.00
2018-11-27T04:26:32.711Z,95230.00
2018-11-27T04:27:10.315Z,95227.00
2018-11-27T04:27:48.213Z,95231.00
2018-11-27T04:28:26.051Z,95227.00
2018-11-27T04:29:03.581Z,95229.00
2018-11-27T04:29:41.090Z,95229.00
2018-11-27T04:30:18.708Z,95232.00
2018-11-27T04:30:56.271Z,95232.00
2018-11-27T04:31:33.939Z,95231.00
2018-11-27T04:32:11.818Z,95231.00
2018-11-27T04:32:49.583Z,95227.00
2018-11-27T04:33:27.055Z,95229.00
2018-11-27T04:34:04.637Z,95230.00
2018-11-27T04:34:42.192Z,95234.00
2018-11-27T04:35:19.825Z,95230.00
2018-11-27T04:35:57.325Z,95226.00
2018-11-27T04:36:34.987Z,95231.00
2018-11-27T04:37:12.821Z,95231.00
2018-11-27T04:37:50.310Z,95234.00
2018-11-27T04:38:27.913Z,95238.00
2018-11-27T04:39:05.491Z,95230.00
2018-11-27T04:39:42.988Z,95234.00
2018-11-27T04:40:20.834Z,95234.00
2018-11-27T04:40:58.616Z,95234.00
2018-11-27T04:41:36.172Z,95232.00
2018-11-27T04:42:13.850Z,95239.00
2018-11-27T04:42:51.531Z,95235.00
2018-11-27T04:43:29.192Z,95234.00
2018-11-27T04:44:06.832Z,95233.00
2018-11-27T04:44:44.282Z,95239.00
2018-11-27T04:45:21.920Z,95239.00
2018-11-27T04:45:59.458Z,95236.00
2018-11-27T04:46:37.115Z,95239.00
2018-11-27T04:47:14.769Z,95241.00
2018-11-27T04:47:52.332Z,95237.00
2018-11-27T04:48:30.043Z,95243.00
2018-11-27T04:49:07.846Z,95242.00
2018-11-27T04:49:45.587Z,95235.00
2018-11-27T04:50:23.263Z,95241.00
2018-11-27T04:51:00.784Z,95239.00
2018-11-27T04:51:38.630Z,95241.00
2018-11-27T04:52:16.334Z,95237.00
2018-11-27T04:52:54.025Z,95246.00
2018-11-27T04:53:31.672Z,95241.00
2018-11-27T04:54:09.172Z,95242.00
2018-11-27T04:54:46.654Z,95241.00
2018-11-27T04:55:24.368Z,95246.00
2018-11-27T04:56:02.044Z,95244.00
2018-11-27T04:56:40.088Z,95247.00
2018-11-27T04:57:17.665Z,95245.00
2018-11-27T04:57:55.270Z,95245.00
2018-11-27T04:58:32.990Z,95251.00
2018-11-27T04:59:10.557Z,95251.00
2018-11-27T04:59:48.058Z,95252.00
2018-11-27T05:00:25.796Z,95252.00
2018-11-27T05:01:03.588Z,95251.00
2018-11-27T05:01:41.060Z,95255.00
2018-11-27T05:02:18.629Z,95249.00
2018-11-27T05:02:56.181Z,95259.00
2018-11-27T05:03:33.914Z,95256.00
2018-11-27T05:04:11.425Z,95257.00
2018-11-27T05:04:49.146Z,95260.00
2018-11-27T05:05:26.812Z,95255.00
2018-11-27T05:06:04.519Z,95256.00
2018-11-27T05:06:42.242Z,95261.00
2018-11-27T05:07:19.772Z,95260.00
2018-11-27T05:07:57.459Z,95260.00
2018-11-27T05:08:35.096Z,95263.00
2018-11-27T05:09:12.879Z,95259.00
2018-11-27T05:09:50.384Z,95259.00
2018-11-27T05:10:28.005Z,95264.00
2018-11-27T05:11:05.592Z,95264.00
2018-11-27T05:11:43.222Z,95266.00
2018-11-27T05:12:20.953Z,95267.00
2018-11-27T05:12:58.665Z,95268.00
2018-11-27T05:13:36.075Z,95271.00
2018-11-27T05:14:13.718Z,95270.00
2018-11-27T05:14:51.417Z,95269.00
2018-11-27T05:15:28.969Z,95271.00
2018-11-27T05:16:06.544Z,95267.00
2018-11-27T05:16:44.336Z,95269.00
2018-11-27T05:17:22.252Z,95269.00
2018-11-27T05:17:59.873Z,95273.00
2018-11-27T05:18:37.473Z,95272.00
2018-11-27T05:19:15.067Z,95274.00
2018-11-27T05:19:52.758Z,95273.00
2018-11-27T05:20:30.272Z,95273.00
2018-11-27T05:21:07.904Z,95273.00
2018-11-27T05:21:45.829Z,95281.00
2018-11-27T05:22:23.537Z,95276.00
2018-11-27T05:23:01.364Z,95273.00
2018-11-27T05:23:38.987Z,95275.00
2018-11-27T05:24:16.572Z,95280.00
2018-11-27T05:24:54.281Z,95282.00
2018-11-27T05:25:31.821Z,95279.00
2018-11-27T05:26:09.340Z,95281.00
2018-11-27T05:26:46.812Z,95280.00
2018-11-27T05:27:24.540Z,95280.00
2018-11-27T05:28:02.055Z,95282.00
2018-11-27T05:28:39.491Z,95282.00
2018-11-27T05:29:17.170Z,95284.00
2018-11-27T05:29:54.798Z,95285.00
2018-11-27T05:30:32.283Z,95285.00
2018-11-27T05:31:10.380Z,95291.00
2018-11-27T05:31:48.153Z,95288.00
2018-11-27T05:32:25.617Z,95288.00
2018-11-27T05:33:03.218Z,95292.00
2018-11-27T05:33:40.898Z,95290.00
2018-11-27T05:34:18.498Z,95293.00
2018-11-27T05:34:56.046Z,95292.00
2018-11-27T05:35:33.599Z,95292.00
2018-11-27T05:36:11.184Z,95291.00
2018-11-27T05:36:48.653Z,95290.00
2018-11-27T05:37:26.380Z,95296.00
2018-11-27T05:38:03.924Z,95293.00
2018-11-27T05:38:41.606Z,95294.00
2018-11-27T05:39:19.008Z,95292.00
2018-11-27T05:39:56.708Z,95299.00
2018-11-27T05:40:34.456Z,95298.00
2018-11-27T05:41:12.176Z,95300.00
2018-11-27T05:41:49.927Z,95300.00
2018-11-27T05:42:27.415Z,95300.00
2018-11-27T05:43:05.135Z,95303.00
2018-11-27T05:43:46.150Z,95306.00
2018-11-27T05:44:20.249Z,95307.00
2018-11-27T05:44:57.782Z,95310.00
2018-11-27T05:45:35.267Z,95308.00
2018-11-27T05:46:12.753Z,95313.00
2018-11-27T05:46:50.382Z,95310.00
2018-11-27T05:47:28.149Z,95311.00
2018-11-27T05:48:05.831Z,95312.00
2018-11-27T05:48:43.383Z,95311.00
2018-11-27T05:49:21.107Z,95311.00
2018-11-27T05:49:58.828Z,95316.00
2018-11-27T05:50:36.424Z,95312.00
2018-11-27T05:51:13.900Z,95318.00
2018-11-27T05:51:51.563Z,95314.00
2018-11-27T05:52:29.098Z,95322.00
2018-11-27T05:53:06.688Z,95318.00
2018-11-27T05:53:44.388Z,95316.00
2018-11-27T05:54:22.314Z,95323.00
2018-11-27T05:55:00.033Z,95319.00
2018-11-27T05:55:37.638Z,95317.00
2018-11-27T05:56:15.312Z,95317.00
2018-11-27T05:56:53.216Z,95322.00
2018-11-27T05:57:30.800Z,95323.00
2018-11-27T05:58:08.353Z,95319.00
2018-11-27T05:58:45.944Z,95323.00
2018-11-27T05:59:23.694Z,95324.00
2018-11-27T06:00:01.546Z,95328.00
2018-11-27T06:00:39.222Z,95327.00
2018-11-27T06:01:17.078Z,95331.00
2018-11-27T06:01:54.586Z,95335.00
2018-11-27T06:02:32.484Z,95329.00
2018-11-27T06:03:10.391Z,95330.00
2018-11-27T06:03:47.956Z,95324.00
2018-11-27T06:04:25.686Z,95331.00
2018-11-27T06:05:03.516Z,95333.00
2018-11-27T06:05:40.961Z,95336.00
2018-11-27T06:06:18.481Z,95332.00
2018-11-27T06:06:56.022Z,95335.00
2018-11-27T06:07:33.673Z,95329.00
2018-11-27T06:08:11.524Z,95332.00
2018-11-27T06:08:49.339Z,95334.00
2018-11-27T06:09:27.126Z,95332.00
2018-11-27T06:10:04.780Z,95331.00
2018-11-27T06:10:42.445Z,95333.00
2018-11-27T06:11:20.111Z,95335.00
2018-11-27T06:11:57.884Z,95337.00
2018-11-27T06:12:35.648Z,95337.00
2018-11-27T06:13:13.132Z,95336.00
2018-11-27T06:13:50.756Z,95338.00
2018-11-27T06:14:28.383Z,95340.00
2018-11-27T06:15:05.973Z,95337.00
2018-11-27T06:15:43.892Z,95339.00
2018-11-27T06:16:21.249Z,95342.00
2018-11-27T06:16:58.864Z,95341.00
2018-11-27T06:17:36.378Z,95342.00
2018-11-27T06:18:14.296Z,95343.00
2018-11-27T06:18:51.895Z,95350.00
2018-11-27T06:19:29.365Z,95345.00
2018-11-27T06:20:07.107Z,95348.00
2018-11-27T06:20:44.893Z,95348.00
2018-11-27T06:21:22.588Z,95351.00
2018-11-27T06:22:00.287Z,95352.00
2018-11-27T06:22:38.043Z,95350.00
2018-11-27T06:23:15.635Z,95355.00
2018-11-27T06:23:53.234Z,95359.00
2018-11-27T06:24:30.924Z,95353.00
2018-11-27T06:25:08.330Z,95359.00
2018-11-27T06:25:46.267Z,95355.00
2018-11-27T06:26:23.745Z,95363.00
2018-11-27T06:27:01.336Z,95362.00
2018-11-27T06:27:39.016Z,95359.00
2018-11-27T06:28:16.690Z,95364.00
2018-11-27T06:28:54.356Z,95366.00
2018-11-27T06:29:31.937Z,95364.00
2018-11-27T06:30:09.632Z,95367.00
2018-11-27T06:30:47.063Z,95369.00
2018-11-27T06:31:24.827Z,95365.00
2018-11-27T06:32:02.407Z,95369.00
2018-11-27T06:32:39.921Z,95371.00
2018-11-27T06:33:17.786Z,95369.00
2018-11-27T06:33:55.609Z,95373.00
2018-11-27T06:34:33.101Z,95377.00
2018-11-27T06:35:10.616Z,95375.00
2018-11-27T06:35:48.048Z,95380.00
2018-11-27T06:36:25.578Z,95378.00
2018-11-27T06:37:03.160Z,95379.00
2018-11-27T06:37:40.823Z,95377.00
2018-11-27T06:38:18.293Z,95379.00
2018-11-27T06:38:55.861Z,95382.00
2018-11-27T06:39:33.433Z,95379.00
2018-11-27T06:40:11.022Z,95380.00
2018-11-27T06:40:48.548Z,95382.00
2018-11-27T06:41:26.277Z,95381.00
2018-11-27T06:42:03.780Z,95380.00
2018-11-27T06:42:41.361Z,95380.00
2018-11-27T06:43:18.970Z,95380.00
2018-11-27T06:43:56.604Z,95378.00
2018-11-27T06:44:34.171Z,95382.00
2018-11-27T06:45:11.829Z,95386.00
2018-11-27T06:45:49.353Z,95382.00
2018-11-27T06:46:26.986Z,95385.00
2018-11-27T06:47:04.496Z,95385.00
2018-11-27T06:47:42.231Z,95387.00
2018-11-27T06:48:19.725Z,95383.00
2018-11-27T06:48:57.372Z,95380.00
2018-11-27T06:49:35.085Z,95386.00
2018-11-27T06:50:12.624Z,95383.00
2018-11-27T06:50:50.107Z,95386.00
2018-11-27T06:51:27.651Z,95383.00
2018-11-27T06:52:05.292Z,95388.00
2018-11-27T06:52:42.973Z,95385.00
2018-11-27T06:53:20.578Z,95388.00
2018-11-27T06:53:58.192Z,95389.00
2018-11-27T06:54:35.656Z,95389.00
2018-11-27T06:55:13.255Z,95396.00
2018-11-27T06:55:50.751Z,95386.00
2018-11-27T06:56:28.298Z,95393.00
2018-11-27T06:57:05.896Z,95392.00
2018-11-27T06:57:43.487Z,95396.00
2018-11-27T06:58:21.053Z,95398.00
2018-11-27T06:58:58.612Z,95394.00
2018-11-27T06:59:36.140Z,95400.00
2018-11-27T07:00:13.754Z,95401.00
2018-11-27T07:00:51.313Z,95400.00
2018-11-27T07:01:28.846Z,95395.00
2018-11-27T07:02:06.460Z,95402.00
2018-11-27T07:02:43.991Z,95403.00
2018-11-27T07:03:21.674Z,95404.00
2018-11-27T07:03:59.357Z,95403.00
2018-11-27T07:04:37.293Z,95409.00
2018-11-27T07:05:14.936Z,95409.00
2018-11-27T07:05:52.768Z,95409.00
2018-11-27T07:06:30.180Z,95413.00
2018-11-27T07:07:07.687Z,95419.00
2018-11-27T07:07:45.320Z,95416.00
2018-11-27T07:08:22.816Z,95416.00
2018-11-27T07:09:00.427Z,95413.00
2018-11-27T07:09:38.076Z,95418.00
2018-11-27T07:10:15.826Z,95421.00
2018-11-27T07:10:53.371Z,95423.00
2018-11-27T07:11:30.951Z,95427.00
2018-11-27T07:12:08.484Z,95425.00
2018-11-27T07:12:46.132Z,95426.00
2018-11-27T07:13:23.633Z,95426.00
2018-11-27T07:14:01.581Z,95425.00
2018-11-27T07:14:39.371Z,95424.00
2018-11-27T07:15:17.072Z,95426.00
2018-11-27T07:15:54.870Z,95429.00
2018-11-27T07:16:32.391Z,95433.00
2018-11-27T07:17:10.020Z,95434.00
2018-11-27T07:17:47.658Z,95430.00
2018-11-27T07:18:25.352Z,95432.00
2018-11-27T07:19:03.012Z,95436.00
2018-11-27T07:19:40.772Z,95436.00
2018-11-27T07:20:18.327Z,95439.00
2018-11-27T07:20:55.901Z,95439.00
2018-11-27T07:21:33.475Z,95441.00